createdAt,value
2023-02-28T12:13:58.361Z,129.38
2023-02-28T12:14:59.315Z,264.38
2023-02-28T12:15:59.312Z,618.75
2023-02-28T12:16:59.292Z,596.25
2023-02-28T12:17:59.279Z,675.00
2023-02-28T12:18:59.304Z,804.38
2023-02-28T12:19:59.273Z,675.00
2023-02-28T12:20:59.411Z,393.75
2023-02-28T12:21:59.255Z,511.88
2023-02-28T12:22:59.237Z,495.00
2023-02-28T12:23:59.221Z,579.38
2023-02-28T12:24:59.252Z,798.75
2023-02-28T12:26:00.128Z,843.75
2023-02-28T12:26:59.193Z,691.88
2023-02-28T12:27:59.200Z,585.00
2023-02-28T12:28:59.175Z,613.12
2023-02-28T12:29:59.169Z,601.88
2023-02-28T12:30:59.152Z,691.88
2023-02-28T12:31:59.200Z,579.38
2023-02-28T12:32:59.130Z,354.38
2023-02-28T12:33:59.115Z,241.88
2023-02-28T12:34:59.114Z,337.50
2023-02-28T12:35:59.100Z,618.75
2023-02-28T12:36:59.095Z,759.38
2023-02-28T12:37:59.089Z,748.12
2023-02-28T12:38:59.086Z,697.50
2023-02-28T12:39:59.055Z,646.88
2023-02-28T12:40:59.049Z,765.00
2023-02-28T12:41:59.031Z,691.88
2023-02-28T12:42:59.019Z,382.50
2023-02-28T12:43:59.012Z,185.62
2023-02-28T12:44:59.045Z,236.25
2023-02-28T12:45:59.261Z,427.50
2023-02-28T12:46:58.978Z,534.38
2023-02-28T12:47:59.038Z,556.88
2023-02-28T12:48:58.962Z,450.00
2023-02-28T12:49:58.966Z,376.88
2023-02-28T12:50:58.950Z,736.88
2023-02-28T12:51:58.984Z,663.75
2023-02-28T12:52:58.978Z,500.62
2023-02-28T12:53:58.937Z,601.88
2023-02-28T12:54:58.886Z,601.88
2023-02-28T12:55:58.888Z,720.00
2023-02-28T12:56:58.924Z,798.75
2023-02-28T12:57:58.870Z,832.50
2023-02-28T12:58:58.896Z,900.00
2023-02-28T12:59:58.855Z,933.75
2023-02-28T13:00:58.869Z,916.88
2023-02-28T13:01:58.892Z,922.50
2023-02-28T13:03:00.617Z,956.25
2023-02-28T13:03:58.806Z,984.38
2023-02-28T13:04:58.813Z,967.50
2023-02-28T13:05:58.863Z,933.75
2023-02-28T13:06:58.916Z,922.50
2023-02-28T13:07:58.770Z,939.38
2023-02-28T13:08:59.099Z,916.88
2023-02-28T13:09:58.824Z,894.38
2023-02-28T13:10:58.749Z,916.88
2023-02-28T13:11:58.733Z,939.38
2023-02-28T13:12:58.716Z,916.88
2023-02-28T13:13:58.701Z,877.50
2023-02-28T13:14:58.713Z,888.75
2023-02-28T13:15:58.703Z,950.62
2023-02-28T13:16:58.736Z,1029.38
2023-02-28T13:17:58.674Z,1068.75
2023-02-28T13:18:58.653Z,1046.25
2023-02-28T13:19:58.645Z,1023.75
2023-02-28T13:20:58.632Z,1018.12
2023-02-28T13:21:58.663Z,1018.12
2023-02-28T13:22:58.615Z,1018.12
2023-02-28T13:23:58.628Z,995.62
2023-02-28T13:24:58.609Z,995.62
2023-02-28T13:25:58.687Z,961.88
2023-02-28T13:26:58.575Z,939.38
2023-02-28T13:27:58.599Z,939.38
2023-02-28T13:28:58.596Z,961.88
2023-02-28T13:29:58.566Z,984.38
2023-02-28T13:30:58.605Z,961.88
2023-02-28T13:31:58.561Z,956.25
2023-02-28T13:32:58.575Z,967.50
2023-02-28T13:33:58.529Z,961.88
2023-02-28T13:34:58.492Z,967.50
2023-02-28T13:35:58.513Z,956.25
2023-02-28T13:36:58.500Z,916.88
2023-02-28T13:37:58.483Z,905.62
2023-02-28T13:38:58.462Z,1001.25
2023-02-28T13:39:58.484Z,1153.12
2023-02-28T13:40:58.482Z,1136.25
2023-02-28T13:41:58.489Z,984.38
2023-02-28T13:42:58.434Z,894.38
2023-02-28T13:43:58.453Z,900.00
2023-02-28T13:44:58.443Z,939.38
2023-02-28T13:45:58.439Z,905.62
2023-02-28T13:46:58.416Z,849.38
2023-02-28T13:47:58.393Z,826.88
2023-02-28T13:48:58.386Z,815.62
2023-02-28T13:49:58.377Z,855.00
2023-02-28T13:50:58.372Z,652.50
2023-02-28T13:51:58.381Z,331.88
2023-02-28T13:52:58.339Z,365.62
2023-02-28T13:53:58.358Z,658.12
2023-02-28T13:54:58.314Z,871.88
2023-02-28T13:55:58.311Z,922.50
2023-02-28T13:56:58.320Z,860.62
2023-02-28T13:57:58.297Z,708.75
2023-02-28T13:58:58.295Z,450.00
2023-02-28T13:59:58.302Z,444.38
2023-02-28T14:00:58.327Z,388.12
2023-02-28T14:01:58.271Z,281.25
2023-02-28T14:02:58.332Z,168.75
2023-02-28T14:03:58.237Z,343.12
2023-02-28T14:04:58.306Z,540.00
2023-02-28T14:05:58.230Z,495.00
2023-02-28T14:06:58.208Z,646.88
2023-02-28T14:07:58.205Z,984.38
2023-02-28T14:08:58.188Z,995.62
2023-02-28T14:09:58.222Z,489.38
2023-02-28T14:10:58.164Z,123.75
2023-02-28T14:11:58.162Z,444.38
2023-02-28T14:12:58.144Z,540.00
2023-02-28T14:13:58.145Z,506.25
2023-02-28T14:14:58.141Z,776.25
2023-02-28T14:15:58.174Z,753.75
2023-02-28T14:16:58.103Z,624.38
2023-02-28T14:17:58.107Z,348.75
2023-02-28T14:18:58.077Z,151.88
2023-02-28T14:19:58.079Z,174.38
2023-02-28T14:20:58.141Z,315.00
2023-02-28T14:21:58.101Z,483.75
2023-02-28T14:22:58.105Z,421.88
2023-02-28T14:23:58.108Z,495.00
2023-02-28T14:24:58.073Z,680.62
2023-02-28T14:25:58.073Z,534.38
2023-02-28T14:26:58.014Z,337.50
2023-02-28T14:27:57.993Z,399.38
2023-02-28T14:28:57.984Z,720.00
2023-02-28T14:29:57.992Z,978.75
2023-02-28T14:30:58.138Z,995.62
2023-02-28T14:31:57.973Z,658.12
2023-02-28T14:32:57.977Z,455.62
2023-02-28T14:33:57.939Z,630.00
2023-02-28T14:34:57.904Z,736.88
2023-02-28T14:35:58.005Z,703.12
2023-02-28T14:36:57.899Z,489.38
2023-02-28T14:37:57.910Z,376.88
2023-02-28T14:38:57.899Z,427.50
2023-02-28T14:39:57.908Z,568.12
2023-02-28T14:40:57.893Z,703.12
2023-02-28T14:41:57.858Z,798.75
2023-02-28T14:42:57.901Z,765.00
2023-02-28T14:43:57.882Z,765.00
2023-02-28T14:44:57.851Z,804.38
2023-02-28T14:45:57.829Z,798.75
2023-02-28T14:46:57.856Z,691.88
2023-02-28T14:47:57.796Z,815.62
2023-02-28T14:48:57.858Z,877.50
2023-02-28T14:49:57.784Z,922.50
2023-02-28T14:50:57.755Z,922.50
2023-02-28T14:51:57.775Z,866.25
2023-02-28T14:52:57.724Z,821.25
2023-02-28T14:53:57.741Z,826.88
2023-02-28T14:54:57.713Z,838.12
2023-02-28T14:55:57.732Z,843.75
2023-02-28T14:56:57.720Z,843.75
2023-02-28T14:57:57.705Z,838.12
2023-02-28T14:58:57.686Z,843.75
2023-02-28T14:59:57.673Z,855.00
2023-02-28T15:00:57.661Z,866.25
2023-02-28T15:01:57.704Z,860.62
2023-02-28T15:02:57.628Z,843.75
2023-02-28T15:03:57.634Z,787.50
2023-02-28T15:04:57.779Z,781.88
2023-02-28T15:05:57.631Z,810.00
2023-02-28T15:06:57.613Z,821.25
2023-02-28T15:07:57.599Z,810.00
2023-02-28T15:08:57.577Z,815.62
2023-02-28T15:09:57.585Z,821.25
2023-02-28T15:10:57.553Z,810.00
2023-02-28T15:11:57.574Z,798.75
2023-02-28T15:12:57.577Z,781.88
2023-02-28T15:13:57.532Z,765.00
2023-02-28T15:14:57.519Z,753.75
2023-02-28T15:16:05.081Z,748.12
2023-02-28T15:16:57.668Z,753.75
2023-02-28T15:17:57.509Z,759.38
2023-02-28T15:18:57.508Z,753.75
2023-02-28T15:19:57.508Z,725.62
2023-02-28T15:20:57.538Z,720.00
2023-02-28T15:21:57.480Z,731.25
2023-02-28T15:22:57.455Z,748.12
2023-02-28T15:23:57.437Z,736.88
2023-02-28T15:24:57.465Z,708.75
2023-02-28T15:25:57.517Z,697.50
2023-02-28T15:26:57.393Z,714.38
2023-02-28T15:27:57.398Z,714.38
2023-02-28T15:28:57.419Z,720.00
2023-02-28T15:29:57.369Z,697.50
2023-02-28T15:30:57.427Z,646.88
2023-02-28T15:31:58.441Z,624.38
2023-02-28T15:32:57.430Z,658.12
2023-02-28T15:33:57.371Z,703.12
2023-02-28T15:34:57.322Z,748.12
2023-02-28T15:35:57.365Z,742.50
2023-02-28T15:36:57.311Z,714.38
2023-02-28T15:37:57.397Z,691.88
2023-02-28T15:39:01.544Z,663.75
2023-02-28T15:39:57.319Z,607.50
2023-02-28T15:40:57.274Z,562.50
2023-02-28T15:41:57.263Z,562.50
2023-02-28T15:42:57.282Z,545.62
2023-02-28T15:43:57.246Z,528.75
2023-02-28T15:44:57.249Z,534.38
2023-02-28T15:45:57.347Z,568.12
2023-02-28T15:46:57.197Z,590.62
2023-02-28T15:47:59.952Z,596.25
2023-02-28T15:48:57.200Z,596.25
2023-02-28T15:49:57.201Z,590.62
2023-02-28T15:50:57.203Z,585.00
2023-02-28T15:51:57.187Z,568.12
2023-02-28T15:52:57.155Z,551.25
2023-02-28T15:53:57.139Z,517.50
2023-02-28T15:54:57.136Z,466.88
2023-02-28T15:55:57.134Z,427.50
2023-02-28T15:56:57.104Z,421.88
2023-02-28T15:57:57.107Z,444.38
2023-02-28T15:58:57.092Z,466.88
2023-02-28T15:59:57.068Z,489.38
2023-02-28T16:00:57.090Z,489.38
2023-02-28T16:01:57.116Z,461.25
2023-02-28T16:02:57.153Z,433.12
2023-02-28T16:03:57.070Z,427.50
2023-02-28T16:04:57.028Z,444.38
2023-02-28T16:05:57.037Z,444.38
2023-02-28T16:06:56.999Z,421.88
2023-02-28T16:07:57.021Z,405.00
2023-02-28T16:08:56.981Z,393.75
2023-02-28T16:09:56.997Z,405.00
2023-02-28T16:10:56.970Z,416.25
2023-02-28T16:11:56.950Z,270.00
2023-02-28T16:12:56.973Z,90.00
2023-02-28T16:14:04.482Z,45.00
2023-02-28T16:14:56.913Z,39.38
2023-02-28T16:15:56.920Z,39.38
2023-02-28T16:19:02.879Z,39.38
2023-02-28T16:19:39.044Z,33.75
2023-02-28T16:21:06.652Z,33.75
2023-02-28T16:22:52.654Z,33.75
2023-02-28T16:23:53.331Z,33.75
2023-02-28T16:24:53.339Z,28.12
2023-02-28T16:25:53.653Z,28.12
2023-02-28T16:26:53.273Z,28.12
2023-02-28T16:27:53.302Z,28.12
2023-02-28T16:28:53.266Z,28.12
2023-02-28T16:29:54.187Z,28.12
2023-02-28T16:30:53.825Z,22.50
2023-02-28T16:31:53.284Z,22.50
2023-02-28T16:32:53.257Z,22.50
2023-02-28T16:33:53.278Z,22.50
2023-02-28T16:34:53.199Z,22.50
2023-02-28T16:35:53.315Z,22.50
2023-02-28T16:36:53.162Z,22.50
2023-02-28T16:37:53.243Z,22.50
2023-02-28T16:38:53.201Z,16.88
2023-02-28T16:39:53.164Z,16.88
2023-02-28T16:40:53.141Z,16.88
2023-02-28T16:41:53.132Z,16.88
2023-02-28T16:42:54.031Z,16.88
2023-02-28T16:43:53.122Z,16.88
2023-02-28T16:44:53.093Z,16.88
2023-02-28T16:45:53.105Z,16.88
2023-02-28T16:46:53.075Z,11.25
2023-02-28T16:47:53.052Z,11.25
2023-02-28T16:48:53.054Z,11.25
2023-02-28T16:49:53.061Z,11.25
2023-02-28T16:50:53.018Z,11.25
2023-02-28T16:51:53.086Z,11.25
2023-02-28T16:52:53.013Z,11.25
2023-02-28T16:53:52.990Z,11.25
2023-02-28T16:54:52.962Z,11.25
2023-02-28T16:55:53.128Z,5.62
2023-02-28T16:56:52.958Z,5.62
2023-02-28T16:57:52.941Z,5.62
2023-02-28T16:58:53.653Z,5.62
2023-02-28T16:59:53.224Z,5.62
2023-02-28T17:00:52.958Z,5.62
2023-02-28T17:01:53.200Z,5.62
2023-02-28T17:02:53.139Z,5.62
2023-02-28T17:03:53.325Z,5.62
2023-02-28T17:04:52.912Z,5.62
2023-02-28T17:05:52.870Z,5.62
2023-02-28T17:06:52.867Z,0.00
2023-02-28T17:07:52.835Z,0.00
2023-02-28T17:08:52.867Z,0.00
2023-02-28T17:09:52.962Z,0.00
2023-02-28T17:10:52.824Z,0.00
2023-02-28T17:11:52.820Z,0.00
2023-02-28T17:12:55.005Z,0.00
2023-02-28T17:13:52.894Z,0.00
2023-02-28T17:14:52.994Z,0.00
2023-02-28T17:15:53.111Z,0.00
2023-02-28T17:16:52.799Z,0.00
2023-02-28T17:17:52.769Z,0.00
2023-02-28T17:18:53.694Z,0.00
2023-02-28T17:19:52.825Z,0.00
2023-02-28T17:20:52.730Z,0.00
2023-02-28T17:21:52.832Z,0.00
2023-02-28T17:22:55.993Z,0.00
2023-02-28T17:23:52.769Z,0.00
2023-02-28T17:24:53.401Z,0.00
2023-02-28T17:25:56.414Z,0.00
2023-02-28T17:26:53.609Z,0.00
2023-02-28T17:27:52.700Z,0.00
2023-02-28T17:28:54.360Z,0.00
2023-02-28T17:29:52.859Z,0.00
2023-02-28T17:30:54.020Z,0.00
2023-02-28T17:31:53.828Z,0.00
2023-02-28T17:32:52.904Z,0.00
2023-02-28T17:33:52.842Z,0.00
2023-02-28T17:34:55.254Z,0.00
2023-02-28T17:35:52.963Z,0.00
2023-02-28T17:36:55.537Z,0.00
2023-02-28T17:37:54.458Z,0.00
2023-02-28T17:38:53.149Z,0.00
2023-02-28T17:39:53.684Z,0.00
2023-02-28T17:40:53.395Z,0.00
2023-02-28T17:41:59.065Z,0.00
2023-02-28T17:42:52.537Z,0.00
2023-02-28T17:43:52.545Z,0.00
2023-02-28T17:44:52.511Z,0.00
2023-02-28T17:45:52.507Z,0.00
2023-02-28T17:46:52.460Z,0.00
2023-02-28T17:47:52.483Z,0.00
2023-02-28T17:48:52.473Z,0.00
2023-02-28T17:49:52.537Z,0.00
2023-02-28T17:50:52.445Z,0.00
2023-02-28T17:51:52.435Z,0.00
2023-02-28T17:52:52.416Z,0.00
2023-02-28T17:53:52.477Z,0.00
2023-02-28T17:54:52.416Z,0.00
2023-02-28T17:55:59.232Z,0.00
2023-02-28T17:56:52.381Z,0.00
2023-02-28T17:57:52.413Z,0.00
2023-02-28T17:58:52.375Z,0.00
2023-02-28T17:59:52.699Z,0.00
2023-02-28T18:00:52.422Z,0.00
2023-02-28T18:01:52.386Z,0.00
2023-02-28T18:02:52.400Z,0.00
2023-02-28T18:04:06.719Z,0.00
2023-02-28T18:04:52.351Z,0.00
2023-02-28T18:05:52.438Z,0.00
2023-02-28T18:06:52.384Z,0.00
2023-02-28T18:07:52.289Z,0.00
2023-02-28T18:08:52.280Z,0.00
2023-02-28T18:09:52.266Z,0.00
2023-02-28T18:10:52.268Z,0.00
2023-02-28T18:11:53.689Z,0.00
2023-02-28T18:12:52.279Z,0.00
2023-02-28T18:13:52.308Z,0.00
2023-02-28T18:14:52.189Z,0.00
2023-02-28T18:15:52.229Z,0.00
2023-02-28T18:16:52.189Z,0.00
2023-02-28T18:17:52.180Z,0.00
2023-02-28T18:18:52.225Z,0.00
2023-02-28T18:19:52.193Z,0.00
2023-02-28T18:20:52.183Z,0.00
2023-02-28T18:21:52.128Z,0.00
2023-02-28T18:22:52.151Z,0.00
2023-02-28T18:23:52.100Z,0.00
2023-02-28T18:24:52.137Z,0.00
2023-02-28T18:25:52.111Z,0.00
2023-02-28T18:26:52.113Z,0.00
2023-02-28T18:27:52.092Z,0.00
2023-02-28T18:28:52.149Z,0.00
2023-02-28T18:29:52.858Z,0.00
2023-02-28T18:30:52.030Z,0.00
2023-02-28T18:31:52.191Z,0.00
2023-02-28T18:32:52.099Z,0.00
2023-02-28T18:33:52.091Z,0.00
2023-02-28T18:34:52.004Z,0.00
2023-02-28T18:35:52.077Z,0.00
2023-02-28T18:36:52.003Z,0.00
2023-02-28T18:37:52.004Z,0.00
2023-02-28T18:38:51.996Z,0.00
2023-02-28T18:39:53.704Z,0.00
2023-02-28T18:40:51.939Z,0.00
2023-02-28T18:41:51.971Z,0.00
2023-02-28T18:42:51.910Z,0.00
2023-02-28T18:43:53.137Z,0.00
2023-02-28T18:44:54.470Z,0.00
2023-02-28T18:45:51.907Z,0.00
2023-02-28T18:46:51.936Z,0.00
2023-02-28T18:47:51.858Z,0.00
2023-02-28T18:48:51.848Z,0.00
2023-02-28T18:49:51.841Z,0.00
2023-02-28T18:50:52.039Z,0.00
2023-02-28T18:51:51.966Z,0.00
2023-02-28T18:52:51.911Z,0.00
2023-02-28T18:54:16.932Z,0.00
2023-02-28T18:54:53.103Z,0.00
2023-02-28T18:55:51.876Z,0.00
2023-02-28T18:57:19.547Z,0.00
2023-02-28T18:57:56.501Z,0.00
2023-02-28T18:58:51.761Z,0.00
2023-02-28T18:59:51.813Z,0.00
2023-02-28T19:00:51.773Z,0.00
2023-02-28T19:01:52.002Z,0.00
2023-02-28T19:02:51.686Z,0.00
2023-02-28T19:03:51.731Z,0.00
2023-02-28T19:04:51.671Z,0.00
2023-02-28T19:05:51.671Z,0.00
2023-02-28T19:06:52.050Z,0.00
2023-02-28T19:07:51.642Z,0.00
2023-02-28T19:08:51.634Z,0.00
2023-02-28T19:09:51.730Z,0.00
2023-02-28T19:10:51.702Z,0.00
2023-02-28T19:11:51.611Z,0.00
2023-02-28T19:12:51.582Z,0.00
2023-02-28T19:13:52.336Z,0.00
2023-02-28T19:14:51.554Z,0.00
2023-02-28T19:15:55.641Z,0.00
2023-02-28T19:16:51.659Z,0.00
2023-02-28T19:17:51.554Z,0.00
2023-02-28T19:18:51.565Z,0.00
2023-02-28T19:19:51.662Z,0.00
2023-02-28T19:20:51.518Z,0.00
2023-02-28T19:21:51.542Z,0.00
2023-02-28T19:22:51.612Z,0.00
2023-02-28T19:23:51.481Z,0.00
2023-02-28T19:24:51.510Z,0.00
2023-02-28T19:25:51.450Z,0.00
2023-02-28T19:26:51.432Z,0.00
2023-02-28T19:27:52.300Z,0.00
2023-02-28T19:28:51.500Z,0.00
2023-02-28T19:29:51.532Z,0.00
2023-02-28T19:30:51.379Z,0.00
2023-02-28T19:31:51.552Z,0.00
2023-02-28T19:32:51.536Z,0.00
2023-02-28T19:33:51.413Z,0.00
2023-02-28T19:34:51.408Z,0.00
2023-02-28T19:35:51.513Z,0.00
2023-02-28T19:36:51.346Z,0.00
2023-02-28T19:37:51.324Z,0.00
2023-02-28T19:38:51.360Z,0.00
2023-02-28T19:39:51.336Z,0.00
2023-02-28T19:40:52.120Z,0.00
2023-02-28T19:41:52.316Z,0.00
2023-02-28T19:42:51.291Z,0.00
2023-02-28T19:43:51.328Z,0.00
2023-02-28T19:44:51.286Z,0.00
2023-02-28T19:45:51.526Z,0.00
2023-02-28T19:46:51.299Z,0.00
2023-02-28T19:47:51.257Z,0.00
2023-02-28T19:48:51.256Z,0.00
2023-02-28T19:49:51.207Z,0.00
2023-02-28T19:50:51.182Z,0.00
2023-02-28T19:51:51.188Z,0.00
2023-02-28T19:52:51.211Z,0.00
2023-02-28T19:53:51.197Z,0.00
2023-02-28T19:54:51.165Z,0.00
2023-02-28T19:55:51.174Z,0.00
2023-02-28T19:56:51.121Z,0.00
2023-02-28T19:57:51.162Z,0.00
2023-02-28T19:58:51.130Z,0.00
2023-02-28T19:59:52.046Z,0.00
2023-02-28T20:00:51.172Z,0.00
2023-02-28T20:01:51.856Z,0.00
2023-02-28T20:02:51.096Z,0.00
2023-02-28T20:03:51.144Z,0.00
2023-02-28T20:04:51.140Z,0.00
2023-02-28T20:05:51.083Z,0.00
2023-02-28T20:06:51.065Z,0.00
2023-02-28T20:07:51.046Z,0.00
2023-02-28T20:08:51.106Z,0.00
2023-02-28T20:09:51.806Z,0.00
2023-02-28T20:10:52.409Z,0.00
2023-02-28T20:11:51.001Z,0.00
2023-02-28T20:12:51.027Z,0.00
2023-02-28T20:13:51.836Z,0.00
2023-02-28T20:14:51.132Z,0.00
2023-02-28T20:15:50.970Z,0.00
2023-02-28T20:16:51.024Z,0.00
2023-02-28T20:17:50.919Z,0.00
2023-02-28T20:18:51.151Z,0.00
2023-02-28T20:19:50.953Z,0.00
2023-02-28T20:20:50.924Z,0.00
2023-02-28T20:21:50.961Z,0.00
2023-02-28T20:22:50.897Z,0.00
2023-02-28T20:23:50.944Z,0.00
2023-02-28T20:24:50.882Z,0.00
2023-02-28T20:25:50.840Z,0.00
2023-02-28T20:26:50.883Z,0.00
2023-02-28T20:27:50.862Z,0.00
2023-02-28T20:28:51.004Z,0.00
2023-02-28T20:29:50.794Z,0.00
2023-02-28T20:30:50.841Z,0.00
2023-02-28T20:31:50.829Z,0.00
2023-02-28T20:32:50.863Z,0.00
2023-02-28T20:33:50.765Z,0.00
2023-02-28T20:34:50.745Z,0.00
2023-02-28T20:35:50.790Z,0.00
2023-02-28T20:36:50.761Z,0.00
2023-02-28T20:37:50.770Z,0.00
2023-02-28T20:38:50.756Z,0.00
2023-02-28T20:39:50.682Z,0.00
2023-02-28T20:40:50.829Z,0.00
2023-02-28T20:41:50.707Z,0.00
2023-02-28T20:42:50.795Z,0.00
2023-02-28T20:43:50.734Z,0.00
2023-02-28T20:44:50.719Z,0.00
2023-02-28T20:45:50.690Z,0.00
2023-02-28T20:46:50.664Z,0.00
2023-02-28T20:47:50.602Z,0.00
2023-02-28T20:48:50.617Z,0.00
2023-02-28T20:49:50.645Z,0.00
2023-02-28T20:50:50.597Z,0.00
2023-02-28T20:51:50.587Z,0.00
2023-02-28T20:52:50.596Z,0.00
2023-02-28T20:53:50.565Z,0.00
2023-02-28T20:54:57.076Z,0.00
2023-02-28T20:55:50.547Z,0.00
2023-02-28T20:56:50.543Z,0.00
2023-02-28T20:57:50.528Z,0.00
2023-02-28T20:58:51.131Z,0.00
2023-02-28T20:59:50.564Z,0.00
2023-02-28T21:00:50.792Z,0.00
2023-02-28T21:01:51.153Z,0.00
2023-02-28T21:02:51.164Z,0.00
2023-02-28T21:03:50.580Z,0.00
2023-02-28T21:04:51.348Z,0.00
2023-02-28T21:05:50.613Z,0.00
2023-02-28T21:06:50.460Z,0.00
2023-02-28T21:07:50.408Z,0.00
2023-02-28T21:08:50.544Z,0.00
2023-02-28T21:09:50.436Z,0.00
2023-02-28T21:10:50.488Z,0.00
2023-02-28T21:11:50.390Z,0.00
2023-02-28T21:14:01.603Z,0.00
2023-02-28T21:15:02.588Z,0.00
2023-02-28T21:16:02.808Z,0.00
2023-02-28T21:17:02.574Z,0.00
2023-02-28T21:18:02.564Z,0.00
2023-02-28T21:19:02.543Z,0.00
2023-02-28T21:20:02.523Z,0.00
2023-02-28T21:21:03.567Z,0.00
2023-02-28T21:22:02.529Z,0.00
2023-02-28T21:23:02.515Z,0.00
2023-02-28T21:24:02.539Z,0.00
2023-02-28T21:25:02.487Z,0.00
2023-02-28T21:26:02.477Z,0.00
2023-02-28T21:27:02.449Z,0.00
2023-02-28T21:28:02.449Z,0.00
2023-02-28T21:29:02.468Z,0.00
2023-02-28T21:30:04.049Z,0.00
2023-02-28T21:31:02.439Z,0.00
2023-02-28T21:32:02.585Z,0.00
2023-02-28T21:33:02.452Z,0.00
2023-02-28T21:34:02.405Z,0.00
2023-02-28T21:35:02.386Z,0.00
2023-02-28T21:36:02.586Z,0.00
2023-02-28T21:37:02.350Z,0.00
2023-02-28T21:38:02.468Z,0.00
2023-02-28T21:39:02.375Z,0.00
2023-02-28T21:40:02.340Z,0.00
2023-02-28T21:41:02.298Z,0.00
2023-02-28T21:42:02.340Z,0.00
2023-02-28T21:43:02.288Z,0.00
2023-02-28T21:44:02.281Z,0.00
2023-02-28T21:45:02.282Z,0.00
2023-02-28T21:46:02.515Z,0.00
2023-02-28T21:47:02.577Z,0.00
2023-02-28T21:48:02.326Z,0.00
2023-02-28T21:49:02.242Z,0.00
2023-02-28T21:50:02.219Z,0.00
2023-02-28T21:51:02.215Z,0.00
2023-02-28T21:52:02.215Z,0.00
2023-02-28T21:53:02.202Z,0.00
2023-02-28T21:54:02.192Z,0.00
2023-02-28T21:55:02.187Z,0.00
2023-02-28T21:56:02.171Z,0.00
2023-02-28T21:57:02.482Z,0.00
2023-02-28T21:58:02.143Z,0.00
2023-02-28T21:59:02.154Z,0.00
2023-02-28T22:00:02.123Z,0.00
2023-02-28T22:01:02.164Z,0.00
2023-02-28T22:02:02.204Z,0.00
2023-02-28T22:03:02.119Z,0.00
2023-02-28T22:04:02.197Z,0.00
2023-02-28T22:05:02.102Z,0.00
2023-02-28T22:06:02.124Z,0.00
2023-02-28T22:07:02.130Z,0.00
2023-02-28T22:08:02.136Z,0.00
2023-02-28T22:09:02.346Z,0.00
2023-02-28T22:10:02.057Z,0.00
2023-02-28T22:11:02.049Z,0.00
2023-02-28T22:12:02.039Z,0.00
2023-02-28T22:13:02.021Z,0.00
2023-02-28T22:14:02.038Z,0.00
2023-02-28T22:15:02.060Z,0.00
2023-02-28T22:16:01.977Z,0.00
2023-02-28T22:17:02.079Z,0.00
2023-02-28T22:18:01.948Z,0.00
2023-02-28T22:19:01.988Z,0.00
2023-02-28T22:20:01.920Z,0.00
2023-02-28T22:21:01.905Z,0.00
2023-02-28T22:22:01.936Z,0.00
2023-02-28T22:23:01.923Z,0.00
2023-02-28T22:24:01.927Z,0.00
2023-02-28T22:25:01.878Z,0.00
2023-02-28T22:26:01.866Z,0.00
2023-02-28T22:27:01.861Z,0.00
2023-02-28T22:28:01.838Z,0.00
2023-02-28T22:29:02.046Z,0.00
2023-02-28T22:30:01.828Z,0.00
2023-02-28T22:31:01.942Z,0.00
2023-02-28T22:32:01.941Z,0.00
2023-02-28T22:33:01.884Z,0.00
2023-02-28T22:34:01.797Z,0.00
2023-02-28T22:35:01.784Z,0.00
2023-02-28T22:36:01.756Z,0.00
2023-02-28T22:37:01.744Z,0.00
2023-02-28T22:38:01.751Z,0.00
2023-02-28T22:39:01.735Z,0.00
2023-02-28T22:40:01.787Z,0.00
2023-02-28T22:41:01.720Z,0.00
2023-02-28T22:42:01.753Z,0.00
2023-02-28T22:43:01.696Z,0.00
2023-02-28T22:44:01.693Z,0.00
2023-02-28T22:45:01.682Z,0.00
2023-02-28T22:46:01.671Z,0.00
2023-02-28T22:47:01.728Z,0.00
2023-02-28T22:48:01.705Z,0.00
2023-02-28T22:49:01.630Z,0.00
2023-02-28T22:50:01.627Z,0.00
2023-02-28T22:51:01.620Z,0.00
2023-02-28T22:52:01.606Z,0.00
2023-02-28T22:53:01.708Z,0.00
2023-02-28T22:54:01.566Z,0.00
2023-02-28T22:55:01.652Z,0.00
2023-02-28T22:56:01.623Z,0.00
2023-02-28T22:57:01.562Z,0.00
2023-02-28T22:58:01.543Z,0.00
2023-02-28T22:59:01.565Z,0.00
2023-02-28T23:00:01.523Z,0.00
2023-02-28T23:01:01.547Z,0.00
2023-02-28T23:02:01.500Z,0.00
2023-02-28T23:03:01.498Z,0.00
2023-02-28T23:04:01.577Z,0.00
2023-02-28T23:05:01.463Z,0.00
2023-02-28T23:06:01.457Z,0.00
2023-02-28T23:07:01.465Z,0.00
2023-02-28T23:08:01.454Z,0.00
2023-02-28T23:09:01.431Z,0.00
2023-02-28T23:10:01.411Z,0.00
2023-02-28T23:11:01.418Z,0.00
2023-02-28T23:12:01.418Z,0.00
2023-02-28T23:13:01.391Z,0.00
2023-02-28T23:14:01.376Z,0.00
2023-02-28T23:15:01.388Z,0.00
2023-02-28T23:16:01.375Z,0.00
2023-02-28T23:17:01.376Z,0.00
2023-02-28T23:18:01.378Z,0.00
2023-02-28T23:19:01.371Z,0.00
2023-02-28T23:20:01.337Z,0.00
2023-02-28T23:21:01.310Z,0.00
2023-02-28T23:22:01.388Z,0.00
2023-02-28T23:23:01.345Z,0.00
2023-02-28T23:24:01.270Z,0.00
2023-02-28T23:25:01.277Z,0.00
2023-02-28T23:26:01.254Z,0.00
2023-02-28T23:27:01.259Z,0.00
2023-02-28T23:28:01.256Z,0.00
2023-02-28T23:29:01.320Z,0.00
2023-02-28T23:30:01.215Z,0.00
2023-02-28T23:31:01.206Z,0.00
2023-02-28T23:32:01.287Z,0.00
2023-02-28T23:33:01.227Z,0.00
2023-02-28T23:34:01.173Z,0.00
2023-02-28T23:35:01.195Z,0.00
2023-02-28T23:36:01.180Z,0.00
2023-02-28T23:37:01.165Z,0.00
2023-02-28T23:38:01.166Z,0.00
2023-02-28T23:39:01.133Z,0.00
2023-02-28T23:40:02.233Z,0.00
2023-02-28T23:41:01.132Z,0.00
2023-02-28T23:42:01.104Z,0.00
2023-02-28T23:43:01.770Z,0.00
2023-02-28T23:44:01.090Z,0.00
2023-02-28T23:45:01.072Z,0.00
2023-02-28T23:46:01.257Z,0.00
2023-02-28T23:47:01.053Z,0.00
2023-02-28T23:48:01.040Z,0.00
2023-02-28T23:49:01.031Z,0.00
2023-02-28T23:50:01.032Z,0.00
2023-02-28T23:51:01.019Z,0.00
2023-02-28T23:52:01.009Z,0.00
2023-02-28T23:53:01.004Z,0.00
2023-02-28T23:54:00.978Z,0.00
2023-02-28T23:55:01.021Z,0.00
2023-02-28T23:56:00.962Z,0.00
2023-02-28T23:57:00.951Z,0.00
2023-02-28T23:58:00.936Z,0.00
2023-02-28T23:59:00.936Z,0.00
